Oceana Nas /Apollo Soucek Field/ Station
KNTU : now visible

Airfield :











YOU CAN JOIN US ON...

 
LOGIN :

Register | Disclaimer

   EN    FR    IT 

 









Legend :    VFR   Marginal VFR   IFR   Intensive IFR   Very Intensive IFR
Visi :
Ceiling :
>= 8 km
>= 3000ft
5 to 8 km
1000 to 3000 ft
1500m to 5 km
500 to 1000 ft
800 to 1500m
200 to 500 ft
< 800m
< 200 ft
Symbols :   Thunderstorms  Fog  Heavy snow  Heavy precipitations  Wind > 20 kt







- Airport Elevation : 23 ft


KNTU - Oceana Nas /Apollo Soucek Field/ Station

CURRENT METAR :
  • 201556Z 22016G22KT 10SM FEW025 FEW080 BKN250 18/08 A2975 RMK AO2 SLP078 T01830083

EXPIRED METARs :
  • 201456Z 20012G18KT 10SM FEW020 BKN200 BKN280 18/10 A2975 RMK AO2 SLP075 T01830100 51030
  • 201356Z 22013G20KT 10SM FEW010 FEW019 BKN140 BKN200 17/13 A2974 RMK AO2 SLP071 T01720128

TAF TAF KNTU
Valid from the 20 at 15:00 until the 21 at 15:00 UTC


2015/2115 20015G20KT 9999 FEW025 BKN250 510005 QNH2970INS
BECMG 2102/2104 23012KT FEW030 SCT080 BKN250 500000 QNH2974INS
BECMG 2108/2110 VRB05KT 9999 FEW030 FEW080 SCT250 QNH2980INS T19/2019Z T12/2112Z FN00178
KZDC FIR / North America



MET'MAP, your aeronautical weather chart ! - Copyright ORBIFLY December 2007 - Disclaimer

ORBIFLY MET'MAP TEAM :

Programming & Development : Alexandra Zaïnal
Concept & Development : Baudouin d'Aumeries
Co-Development & Prog : Marc-Olivier Méhu
Technical & hardware support : Manuel Goepfert

Contact : metmap@orbifly.com




SOURCES & CREDITS :

   NOAA       Earth
Advisory